sensor_id;sensor_type;location;lat;lon;timestamp;temperature;humidity
12413;DHT22;13877;18.896;-99.222;2023-06-14T00:01:37;36.90;27.20
12413;DHT22;13877;18.896;-99.222;2023-06-14T00:04:06;36.70;26.60
12413;DHT22;13877;18.896;-99.222;2023-06-14T00:06:35;36.00;27.30
12413;DHT22;13877;18.896;-99.222;2023-06-14T00:09:01;35.90;28.40
12413;DHT22;13877;18.896;-99.222;2023-06-14T00:11:29;35.80;27.30
12413;DHT22;13877;18.896;-99.222;2023-06-14T00:13:57;35.60;27.10
12413;DHT22;13877;18.896;-99.222;2023-06-14T00:16:24;35.70;27.40
12413;DHT22;13877;18.896;-99.222;2023-06-14T00:18:51;35.60;27.40
12413;DHT22;13877;18.896;-99.222;2023-06-14T00:21:18;35.30;27.50
12413;DHT22;13877;18.896;-99.222;2023-06-14T00:23:46;35.00;27.40
12413;DHT22;13877;18.896;-99.222;2023-06-14T00:26:13;34.70;27.80
12413;DHT22;13877;18.896;-99.222;2023-06-14T00:28:40;34.60;28.70
12413;DHT22;13877;18.896;-99.222;2023-06-14T00:31:07;34.60;28.20
12413;DHT22;13877;18.896;-99.222;2023-06-14T00:33:34;34.50;28.40
12413;DHT22;13877;18.896;-99.222;2023-06-14T00:36:01;34.40;29.20
12413;DHT22;13877;18.896;-99.222;2023-06-14T00:38:28;34.00;28.90
12413;DHT22;13877;18.896;-99.222;2023-06-14T00:40:55;33.80;30.00
12413;DHT22;13877;18.896;-99.222;2023-06-14T00:43:22;33.50;30.00
12413;DHT22;13877;18.896;-99.222;2023-06-14T00:45:49;33.10;30.20
12413;DHT22;13877;18.896;-99.222;2023-06-14T00:48:17;32.70;31.40
12413;DHT22;13877;18.896;-99.222;2023-06-14T00:50:45;32.20;30.00
12413;DHT22;13877;18.896;-99.222;2023-06-14T00:53:14;31.80;32.30
12413;DHT22;13877;18.896;-99.222;2023-06-14T00:55:42;31.60;33.90
12413;DHT22;13877;18.896;-99.222;2023-06-14T00:58:10;31.30;34.10
12413;DHT22;13877;18.896;-99.222;2023-06-14T01:00:38;30.90;34.10
12413;DHT22;13877;18.896;-99.222;2023-06-14T01:03:04;30.60;33.10
12413;DHT22;13877;18.896;-99.222;2023-06-14T01:05:32;30.50;35.90
12413;DHT22;13877;18.896;-99.222;2023-06-14T01:08:31;30.50;32.70
12413;DHT22;13877;18.896;-99.222;2023-06-14T01:11:22;30.50;34.30
12413;DHT22;13877;18.896;-99.222;2023-06-14T01:13:50;30.40;33.60
12413;DHT22;13877;18.896;-99.222;2023-06-14T01:16:18;30.20;34.70
12413;DHT22;13877;18.896;-99.222;2023-06-14T01:18:46;30.00;36.10
12413;DHT22;13877;18.896;-99.222;2023-06-14T01:21:25;29.70;36.80
12413;DHT22;13877;18.896;-99.222;2023-06-14T01:23:53;29.60;36.70
12413;DHT22;13877;18.896;-99.222;2023-06-14T01:26:22;29.40;36.10
12413;DHT22;13877;18.896;-99.222;2023-06-14T01:28:51;29.50;36.60
12413;DHT22;13877;18.896;-99.222;2023-06-14T01:31:20;29.50;35.40
12413;DHT22;13877;18.896;-99.222;2023-06-14T01:33:51;29.50;35.40
12413;DHT22;13877;18.896;-99.222;2023-06-14T01:36:23;29.50;35.00
12413;DHT22;13877;18.896;-99.222;2023-06-14T01:38:53;29.50;36.50
12413;DHT22;13877;18.896;-99.222;2023-06-14T01:41:23;29.40;36.70
12413;DHT22;13877;18.896;-99.222;2023-06-14T01:43:52;29.40;36.70
12413;DHT22;13877;18.896;-99.222;2023-06-14T01:46:20;29.40;38.40
12413;DHT22;13877;18.896;-99.222;2023-06-14T01:48:47;29.40;39.20
12413;DHT22;13877;18.896;-99.222;2023-06-14T01:51:15;29.30;40.20
12413;DHT22;13877;18.896;-99.222;2023-06-14T01:53:42;29.20;40.70
12413;DHT22;13877;18.896;-99.222;2023-06-14T01:56:10;29.20;40.90
12413;DHT22;13877;18.896;-99.222;2023-06-14T01:58:37;29.20;41.20
12413;DHT22;13877;18.896;-99.222;2023-06-14T02:01:04;29.00;41.20
12413;DHT22;13877;18.896;-99.222;2023-06-14T02:03:33;29.00;41.40
12413;DHT22;13877;18.896;-99.222;2023-06-14T02:06:00;28.90;41.80
12413;DHT22;13877;18.896;-99.222;2023-06-14T02:08:28;28.80;41.70
12413;DHT22;13877;18.896;-99.222;2023-06-14T02:10:55;28.80;42.00
12413;DHT22;13877;18.896;-99.222;2023-06-14T02:13:22;28.70;42.00
12413;DHT22;13877;18.896;-99.222;2023-06-14T02:15:50;28.70;41.80
12413;DHT22;13877;18.896;-99.222;2023-06-14T02:18:23;28.60;41.90
12413;DHT22;13877;18.896;-99.222;2023-06-14T02:20:51;28.60;41.90
12413;DHT22;13877;18.896;-99.222;2023-06-14T02:23:18;28.60;41.80
12413;DHT22;13877;18.896;-99.222;2023-06-14T02:25:45;28.50;41.60
12413;DHT22;13877;18.896;-99.222;2023-06-14T02:28:12;28.50;41.50
12413;DHT22;13877;18.896;-99.222;2023-06-14T02:30:39;28.40;41.30
12413;DHT22;13877;18.896;-99.222;2023-06-14T02:33:07;28.40;41.20
12413;DHT22;13877;18.896;-99.222;2023-06-14T02:35:34;28.50;41.20
12413;DHT22;13877;18.896;-99.222;2023-06-14T02:38:02;28.50;40.90
12413;DHT22;13877;18.896;-99.222;2023-06-14T02:40:29;28.50;40.80
12413;DHT22;13877;18.896;-99.222;2023-06-14T02:42:56;28.40;41.00
12413;DHT22;13877;18.896;-99.222;2023-06-14T02:45:25;28.30;40.70
12413;DHT22;13877;18.896;-99.222;2023-06-14T02:47:54;28.40;40.80
12413;DHT22;13877;18.896;-99.222;2023-06-14T02:50:22;28.30;40.90
12413;DHT22;13877;18.896;-99.222;2023-06-14T02:52:50;28.20;41.30
12413;DHT22;13877;18.896;-99.222;2023-06-14T02:55:17;28.10;41.10
12413;DHT22;13877;18.896;-99.222;2023-06-14T02:57:45;28.10;40.90
12413;DHT22;13877;18.896;-99.222;2023-06-14T03:00:16;28.10;40.70
12413;DHT22;13877;18.896;-99.222;2023-06-14T03:02:46;28.20;40.50
12413;DHT22;13877;18.896;-99.222;2023-06-14T03:05:13;28.20;40.50
12413;DHT22;13877;18.896;-99.222;2023-06-14T03:07:46;28.10;40.60
12413;DHT22;13877;18.896;-99.222;2023-06-14T03:10:14;28.10;40.30
12413;DHT22;13877;18.896;-99.222;2023-06-14T03:12:42;28.20;40.40
12413;DHT22;13877;18.896;-99.222;2023-06-14T03:15:11;28.10;40.90
12413;DHT22;13877;18.896;-99.222;2023-06-14T03:17:42;27.90;40.90
12413;DHT22;13877;18.896;-99.222;2023-06-14T03:20:13;27.90;41.00
12413;DHT22;13877;18.896;-99.222;2023-06-14T03:22:40;27.80;40.70
12413;DHT22;13877;18.896;-99.222;2023-06-14T03:25:08;27.80;40.80
12413;DHT22;13877;18.896;-99.222;2023-06-14T03:27:39;27.70;40.40
12413;DHT22;13877;18.896;-99.222;2023-06-14T03:30:07;27.70;40.70
12413;DHT22;13877;18.896;-99.222;2023-06-14T03:32:35;27.80;40.30
12413;DHT22;13877;18.896;-99.222;2023-06-14T03:35:02;27.80;40.40
12413;DHT22;13877;18.896;-99.222;2023-06-14T03:37:29;27.80;40.10
12413;DHT22;13877;18.896;-99.222;2023-06-14T03:39:57;27.90;40.10
12413;DHT22;13877;18.896;-99.222;2023-06-14T03:42:25;27.90;39.40
12413;DHT22;13877;18.896;-99.222;2023-06-14T03:44:53;27.80;39.20
12413;DHT22;13877;18.896;-99.222;2023-06-14T03:47:21;27.80;39.30
12413;DHT22;13877;18.896;-99.222;2023-06-14T03:49:49;27.80;40.90
12413;DHT22;13877;18.896;-99.222;2023-06-14T03:52:16;27.50;40.90
12413;DHT22;13877;18.896;-99.222;2023-06-14T03:54:45;27.30;41.50
12413;DHT22;13877;18.896;-99.222;2023-06-14T03:57:13;27.10;42.20
12413;DHT22;13877;18.896;-99.222;2023-06-14T03:59:42;26.70;42.00
12413;DHT22;13877;18.896;-99.222;2023-06-14T04:02:10;26.60;42.60
12413;DHT22;13877;18.896;-99.222;2023-06-14T04:04:38;26.60;42.30
12413;DHT22;13877;18.896;-99.222;2023-06-14T04:07:05;26.70;42.90
12413;DHT22;13877;18.896;-99.222;2023-06-14T04:09:35;26.60;42.60
12413;DHT22;13877;18.896;-99.222;2023-06-14T04:12:02;26.60;42.90
12413;DHT22;13877;18.896;-99.222;2023-06-14T04:14:31;26.40;43.50
12413;DHT22;13877;18.896;-99.222;2023-06-14T04:17:01;26.30;44.40
12413;DHT22;13877;18.896;-99.222;2023-06-14T04:19:28;26.20;45.00
12413;DHT22;13877;18.896;-99.222;2023-06-14T04:21:56;26.30;45.50
12413;DHT22;13877;18.896;-99.222;2023-06-14T04:24:23;26.20;45.90
12413;DHT22;13877;18.896;-99.222;2023-06-14T04:26:59;26.20;46.60
12413;DHT22;13877;18.896;-99.222;2023-06-14T04:29:29;26.20;47.40
12413;DHT22;13877;18.896;-99.222;2023-06-14T04:32:02;26.30;47.60
12413;DHT22;13877;18.896;-99.222;2023-06-14T04:34:29;26.40;47.90
12413;DHT22;13877;18.896;-99.222;2023-06-14T04:36:58;26.40;48.10
12413;DHT22;13877;18.896;-99.222;2023-06-14T04:39:31;26.40;48.30
12413;DHT22;13877;18.896;-99.222;2023-06-14T04:42:00;26.20;48.80
12413;DHT22;13877;18.896;-99.222;2023-06-14T04:44:27;26.10;49.30
12413;DHT22;13877;18.896;-99.222;2023-06-14T04:47:01;26.30;49.30
12413;DHT22;13877;18.896;-99.222;2023-06-14T04:49:28;26.50;49.30
12413;DHT22;13877;18.896;-99.222;2023-06-14T04:51:57;26.70;48.40
12413;DHT22;13877;18.896;-99.222;2023-06-14T04:54:33;26.70;47.80
12413;DHT22;13877;18.896;-99.222;2023-06-14T04:57:03;26.70;47.30
12413;DHT22;13877;18.896;-99.222;2023-06-14T04:59:33;26.60;47.70
12413;DHT22;13877;18.896;-99.222;2023-06-14T05:02:02;26.50;47.70
12413;DHT22;13877;18.896;-99.222;2023-06-14T05:04:29;26.40;47.90
12413;DHT22;13877;18.896;-99.222;2023-06-14T05:06:57;26.40;48.00
12413;DHT22;13877;18.896;-99.222;2023-06-14T05:09:25;26.30;46.90
12413;DHT22;13877;18.896;-99.222;2023-06-14T05:11:52;26.20;47.20
12413;DHT22;13877;18.896;-99.222;2023-06-14T05:14:18;26.10;47.90
12413;DHT22;13877;18.896;-99.222;2023-06-14T05:16:46;26.20;47.50
12413;DHT22;13877;18.896;-99.222;2023-06-14T05:19:15;26.10;46.90
12413;DHT22;13877;18.896;-99.222;2023-06-14T05:21:45;26.00;47.10
12413;DHT22;13877;18.896;-99.222;2023-06-14T05:24:12;26.10;47.10
12413;DHT22;13877;18.896;-99.222;2023-06-14T05:26:39;26.10;46.70
12413;DHT22;13877;18.896;-99.222;2023-06-14T05:29:06;26.20;47.00
12413;DHT22;13877;18.896;-99.222;2023-06-14T05:31:33;25.90;47.50
12413;DHT22;13877;18.896;-99.222;2023-06-14T05:34:00;25.60;47.60
12413;DHT22;13877;18.896;-99.222;2023-06-14T05:36:29;25.50;47.70
12413;DHT22;13877;18.896;-99.222;2023-06-14T05:38:55;25.40;47.20
12413;DHT22;13877;18.896;-99.222;2023-06-14T05:41:29;25.40;47.50
12413;DHT22;13877;18.896;-99.222;2023-06-14T05:43:56;25.30;47.90
12413;DHT22;13877;18.896;-99.222;2023-06-14T05:46:23;25.20;47.80
12413;DHT22;13877;18.896;-99.222;2023-06-14T05:48:52;25.10;47.90
12413;DHT22;13877;18.896;-99.222;2023-06-14T05:51:19;25.00;47.10
12413;DHT22;13877;18.896;-99.222;2023-06-14T05:53:47;25.20;46.50
12413;DHT22;13877;18.896;-99.222;2023-06-14T05:56:15;25.40;46.70
12413;DHT22;13877;18.896;-99.222;2023-06-14T05:58:45;25.50;46.00
12413;DHT22;13877;18.896;-99.222;2023-06-14T06:01:12;25.50;46.50
12413;DHT22;13877;18.896;-99.222;2023-06-14T06:03:42;25.50;46.70
12413;DHT22;13877;18.896;-99.222;2023-06-14T06:06:12;25.30;46.90
12413;DHT22;13877;18.896;-99.222;2023-06-14T06:08:39;25.20;47.50
12413;DHT22;13877;18.896;-99.222;2023-06-14T06:11:06;25.30;48.00
12413;DHT22;13877;18.896;-99.222;2023-06-14T06:13:33;25.20;48.60
12413;DHT22;13877;18.896;-99.222;2023-06-14T06:16:02;25.10;51.60
12413;DHT22;13877;18.896;-99.222;2023-06-14T06:18:29;25.00;54.70
12413;DHT22;13877;18.896;-99.222;2023-06-14T06:20:57;24.90;55.50
12413;DHT22;13877;18.896;-99.222;2023-06-14T06:23:23;24.80;56.60
12413;DHT22;13877;18.896;-99.222;2023-06-14T06:25:51;24.70;58.40
12413;DHT22;13877;18.896;-99.222;2023-06-14T06:28:18;24.70;59.10
12413;DHT22;13877;18.896;-99.222;2023-06-14T06:30:45;24.70;60.90
12413;DHT22;13877;18.896;-99.222;2023-06-14T06:33:12;24.60;61.00
12413;DHT22;13877;18.896;-99.222;2023-06-14T06:35:39;24.50;61.20
12413;DHT22;13877;18.896;-99.222;2023-06-14T06:38:06;24.30;62.30
12413;DHT22;13877;18.896;-99.222;2023-06-14T06:40:34;24.20;62.60
12413;DHT22;13877;18.896;-99.222;2023-06-14T06:43:01;24.10;63.30
12413;DHT22;13877;18.896;-99.222;2023-06-14T06:45:29;24.10;63.50
12413;DHT22;13877;18.896;-99.222;2023-06-14T06:47:55;24.20;64.20
12413;DHT22;13877;18.896;-99.222;2023-06-14T06:50:23;24.10;63.00
12413;DHT22;13877;18.896;-99.222;2023-06-14T06:52:51;24.20;63.80
12413;DHT22;13877;18.896;-99.222;2023-06-14T06:55:19;24.20;63.30
12413;DHT22;13877;18.896;-99.222;2023-06-14T06:57:46;24.00;64.10
12413;DHT22;13877;18.896;-99.222;2023-06-14T07:00:15;23.80;65.00
12413;DHT22;13877;18.896;-99.222;2023-06-14T07:02:44;23.80;66.40
12413;DHT22;13877;18.896;-99.222;2023-06-14T07:05:11;23.90;66.60
12413;DHT22;13877;18.896;-99.222;2023-06-14T07:07:37;24.00;65.10
12413;DHT22;13877;18.896;-99.222;2023-06-14T07:10:05;24.10;65.10
12413;DHT22;13877;18.896;-99.222;2023-06-14T07:12:32;24.10;62.60
12413;DHT22;13877;18.896;-99.222;2023-06-14T07:15:00;24.20;63.70
12413;DHT22;13877;18.896;-99.222;2023-06-14T07:17:29;24.20;63.90
12413;DHT22;13877;18.896;-99.222;2023-06-14T07:19:56;24.00;64.40
12413;DHT22;13877;18.896;-99.222;2023-06-14T07:22:23;24.10;63.70
12413;DHT22;13877;18.896;-99.222;2023-06-14T07:24:50;24.00;59.90
12413;DHT22;13877;18.896;-99.222;2023-06-14T07:27:17;23.90;61.80
12413;DHT22;13877;18.896;-99.222;2023-06-14T07:29:44;23.80;60.20
12413;DHT22;13877;18.896;-99.222;2023-06-14T07:32:10;23.70;59.90
12413;DHT22;13877;18.896;-99.222;2023-06-14T07:34:39;23.60;60.60
12413;DHT22;13877;18.896;-99.222;2023-06-14T07:37:06;23.80;61.10
12413;DHT22;13877;18.896;-99.222;2023-06-14T07:39:33;23.70;61.10
12413;DHT22;13877;18.896;-99.222;2023-06-14T07:41:59;23.60;62.20
12413;DHT22;13877;18.896;-99.222;2023-06-14T07:44:29;23.90;63.60
12413;DHT22;13877;18.896;-99.222;2023-06-14T07:46:59;24.10;64.80
12413;DHT22;13877;18.896;-99.222;2023-06-14T07:49:27;24.40;65.20
12413;DHT22;13877;18.896;-99.222;2023-06-14T07:51:54;24.50;65.30
12413;DHT22;13877;18.896;-99.222;2023-06-14T07:54:21;24.50;65.40
12413;DHT22;13877;18.896;-99.222;2023-06-14T07:56:53;24.50;65.60
12413;DHT22;13877;18.896;-99.222;2023-06-14T07:59:19;24.40;65.60
12413;DHT22;13877;18.896;-99.222;2023-06-14T08:01:47;24.20;66.00
12413;DHT22;13877;18.896;-99.222;2023-06-14T08:04:15;24.10;66.30
12413;DHT22;13877;18.896;-99.222;2023-06-14T08:06:43;23.90;67.30
12413;DHT22;13877;18.896;-99.222;2023-06-14T08:09:13;23.90;67.60
12413;DHT22;13877;18.896;-99.222;2023-06-14T08:11:40;24.20;67.60
12413;DHT22;13877;18.896;-99.222;2023-06-14T08:14:07;24.30;68.00
12413;DHT22;13877;18.896;-99.222;2023-06-14T08:16:33;24.20;68.50
12413;DHT22;13877;18.896;-99.222;2023-06-14T08:19:00;24.20;68.40
12413;DHT22;13877;18.896;-99.222;2023-06-14T08:21:28;24.20;68.90
12413;DHT22;13877;18.896;-99.222;2023-06-14T08:23:55;24.10;68.30
12413;DHT22;13877;18.896;-99.222;2023-06-14T08:26:22;24.00;68.30
12413;DHT22;13877;18.896;-99.222;2023-06-14T08:28:49;23.90;68.50
12413;DHT22;13877;18.896;-99.222;2023-06-14T08:31:16;23.90;69.20
12413;DHT22;13877;18.896;-99.222;2023-06-14T08:33:43;23.80;69.60
12413;DHT22;13877;18.896;-99.222;2023-06-14T08:36:10;23.70;70.30
12413;DHT22;13877;18.896;-99.222;2023-06-14T08:38:38;23.70;70.90
12413;DHT22;13877;18.896;-99.222;2023-06-14T08:41:06;23.60;71.60
12413;DHT22;13877;18.896;-99.222;2023-06-14T08:43:33;23.60;72.60
12413;DHT22;13877;18.896;-99.222;2023-06-14T08:46:04;23.60;73.10
12413;DHT22;13877;18.896;-99.222;2023-06-14T08:48:33;23.50;74.00
12413;DHT22;13877;18.896;-99.222;2023-06-14T08:51:00;23.50;74.70
12413;DHT22;13877;18.896;-99.222;2023-06-14T08:53:33;23.50;75.00
12413;DHT22;13877;18.896;-99.222;2023-06-14T08:56:01;23.50;75.50
12413;DHT22;13877;18.896;-99.222;2023-06-14T08:58:28;23.40;75.60
12413;DHT22;13877;18.896;-99.222;2023-06-14T09:00:58;23.50;74.70
12413;DHT22;13877;18.896;-99.222;2023-06-14T09:03:25;23.50;74.60
12413;DHT22;13877;18.896;-99.222;2023-06-14T09:05:59;23.60;74.10
12413;DHT22;13877;18.896;-99.222;2023-06-14T09:08:27;23.60;73.80
12413;DHT22;13877;18.896;-99.222;2023-06-14T09:10:57;23.50;74.00
12413;DHT22;13877;18.896;-99.222;2023-06-14T09:13:24;23.50;74.60
12413;DHT22;13877;18.896;-99.222;2023-06-14T09:15:52;23.40;75.10
12413;DHT22;13877;18.896;-99.222;2023-06-14T09:18:19;23.30;75.60
12413;DHT22;13877;18.896;-99.222;2023-06-14T09:20:47;23.20;76.10
12413;DHT22;13877;18.896;-99.222;2023-06-14T09:23:20;23.20;76.80
12413;DHT22;13877;18.896;-99.222;2023-06-14T09:25:48;23.10;77.20
12413;DHT22;13877;18.896;-99.222;2023-06-14T09:28:28;23.10;77.70
12413;DHT22;13877;18.896;-99.222;2023-06-14T09:30:56;23.10;77.70
12413;DHT22;13877;18.896;-99.222;2023-06-14T09:33:23;23.20;77.40
12413;DHT22;13877;18.896;-99.222;2023-06-14T09:35:52;23.20;77.40
12413;DHT22;13877;18.896;-99.222;2023-06-14T09:38:19;23.20;77.50
12413;DHT22;13877;18.896;-99.222;2023-06-14T09:40:47;23.20;77.50
12413;DHT22;13877;18.896;-99.222;2023-06-14T09:43:13;23.20;77.50
12413;DHT22;13877;18.896;-99.222;2023-06-14T09:45:43;23.20;77.70
12413;DHT22;13877;18.896;-99.222;2023-06-14T09:48:12;23.20;77.80
12413;DHT22;13877;18.896;-99.222;2023-06-14T09:50:47;23.20;78.00
12413;DHT22;13877;18.896;-99.222;2023-06-14T09:53:15;23.10;78.20
12413;DHT22;13877;18.896;-99.222;2023-06-14T09:55:49;23.30;77.30
12413;DHT22;13877;18.896;-99.222;2023-06-14T09:58:18;23.30;76.80
12413;DHT22;13877;18.896;-99.222;2023-06-14T10:00:48;23.30;76.80
12413;DHT22;13877;18.896;-99.222;2023-06-14T10:03:27;23.20;77.10
12413;DHT22;13877;18.896;-99.222;2023-06-14T10:05:55;23.20;77.00
12413;DHT22;13877;18.896;-99.222;2023-06-14T10:08:28;23.20;77.20
12413;DHT22;13877;18.896;-99.222;2023-06-14T10:10:59;23.10;77.60
12413;DHT22;13877;18.896;-99.222;2023-06-14T10:13:27;23.10;77.70
12413;DHT22;13877;18.896;-99.222;2023-06-14T10:16:17;23.00;77.90
12413;DHT22;13877;18.896;-99.222;2023-06-14T10:22:10;23.10;77.90
12413;DHT22;13877;18.896;-99.222;2023-06-14T10:24:42;23.10;77.70
12413;DHT22;13877;18.896;-99.222;2023-06-14T10:27:10;23.10;77.80
12413;DHT22;13877;18.896;-99.222;2023-06-14T10:32:27;23.10;77.80
12413;DHT22;13877;18.896;-99.222;2023-06-14T10:35:05;23.00;78.10
12413;DHT22;13877;18.896;-99.222;2023-06-14T10:37:35;23.00;78.30
12413;DHT22;13877;18.896;-99.222;2023-06-14T10:40:02;22.90;78.70
12413;DHT22;13877;18.896;-99.222;2023-06-14T10:42:34;22.90;78.80
12413;DHT22;13877;18.896;-99.222;2023-06-14T10:45:01;22.90;78.80
12413;DHT22;13877;18.896;-99.222;2023-06-14T10:47:29;22.80;79.10
12413;DHT22;13877;18.896;-99.222;2023-06-14T10:50:05;22.70;79.60
12413;DHT22;13877;18.896;-99.222;2023-06-14T10:52:39;22.50;80.30
12413;DHT22;13877;18.896;-99.222;2023-06-14T10:55:12;22.50;81.10
12413;DHT22;13877;18.896;-99.222;2023-06-14T10:57:46;22.50;81.20
12413;DHT22;13877;18.896;-99.222;2023-06-14T11:00:16;22.50;81.00
12413;DHT22;13877;18.896;-99.222;2023-06-14T11:03:18;22.60;80.70
12413;DHT22;13877;18.896;-99.222;2023-06-14T11:05:49;22.50;81.70
12413;DHT22;13877;18.896;-99.222;2023-06-14T11:11:00;22.30;82.90
12413;DHT22;13877;18.896;-99.222;2023-06-14T11:13:27;22.30;83.40
12413;DHT22;13877;18.896;-99.222;2023-06-14T11:15:55;22.20;83.50
12413;DHT22;13877;18.896;-99.222;2023-06-14T11:18:24;22.10;84.10
12413;DHT22;13877;18.896;-99.222;2023-06-14T11:20:54;22.00;84.60
12413;DHT22;13877;18.896;-99.222;2023-06-14T11:23:22;22.00;84.90
12413;DHT22;13877;18.896;-99.222;2023-06-14T11:25:53;22.10;84.90
12413;DHT22;13877;18.896;-99.222;2023-06-14T11:28:20;22.00;85.20
12413;DHT22;13877;18.896;-99.222;2023-06-14T11:30:48;22.00;85.40
12413;DHT22;13877;18.896;-99.222;2023-06-14T11:33:18;22.10;85.30
12413;DHT22;13877;18.896;-99.222;2023-06-14T11:35:45;22.00;86.10
12413;DHT22;13877;18.896;-99.222;2023-06-14T11:38:13;21.80;86.80
12413;DHT22;13877;18.896;-99.222;2023-06-14T11:40:40;21.80;87.20
12413;DHT22;13877;18.896;-99.222;2023-06-14T11:43:06;21.90;87.30
12413;DHT22;13877;18.896;-99.222;2023-06-14T11:45:33;21.80;87.20
12413;DHT22;13877;18.896;-99.222;2023-06-14T11:48:01;21.60;88.30
12413;DHT22;13877;18.896;-99.222;2023-06-14T11:50:28;21.50;85.40
12413;DHT22;13877;18.896;-99.222;2023-06-14T11:53:00;21.50;80.80
12413;DHT22;13877;18.896;-99.222;2023-06-14T11:55:37;21.50;80.10
12413;DHT22;13877;18.896;-99.222;2023-06-14T11:58:05;21.40;78.70
12413;DHT22;13877;18.896;-99.222;2023-06-14T12:00:34;21.40;81.60
12413;DHT22;13877;18.896;-99.222;2023-06-14T12:03:02;21.30;78.00
12413;DHT22;13877;18.896;-99.222;2023-06-14T12:05:29;21.40;77.00
12413;DHT22;13877;18.896;-99.222;2023-06-14T12:08:02;21.30;77.90
12413;DHT22;13877;18.896;-99.222;2023-06-14T12:10:29;21.30;78.20
12413;DHT22;13877;18.896;-99.222;2023-06-14T12:12:59;21.50;77.20
12413;DHT22;13877;18.896;-99.222;2023-06-14T12:15:29;21.60;77.20
12413;DHT22;13877;18.896;-99.222;2023-06-14T12:17:58;21.60;77.40
12413;DHT22;13877;18.896;-99.222;2023-06-14T12:20:30;21.60;79.10
12413;DHT22;13877;18.896;-99.222;2023-06-14T12:23:03;21.60;80.30
12413;DHT22;13877;18.896;-99.222;2023-06-14T12:25:35;21.60;81.20
12413;DHT22;13877;18.896;-99.222;2023-06-14T12:28:09;21.60;81.80
12413;DHT22;13877;18.896;-99.222;2023-06-14T12:30:37;21.70;82.40
12413;DHT22;13877;18.896;-99.222;2023-06-14T12:33:05;21.70;82.80
12413;DHT22;13877;18.896;-99.222;2023-06-14T12:35:32;21.90;81.70
12413;DHT22;13877;18.896;-99.222;2023-06-14T12:37:59;22.00;82.70
12413;DHT22;13877;18.896;-99.222;2023-06-14T12:40:27;22.10;82.90
12413;DHT22;13877;18.896;-99.222;2023-06-14T12:42:54;22.40;82.50
12413;DHT22;13877;18.896;-99.222;2023-06-14T12:45:21;22.60;80.80
12413;DHT22;13877;18.896;-99.222;2023-06-14T12:47:49;22.80;81.30
12413;DHT22;13877;18.896;-99.222;2023-06-14T12:50:16;22.90;81.40
12413;DHT22;13877;18.896;-99.222;2023-06-14T12:52:43;23.10;80.70
12413;DHT22;13877;18.896;-99.222;2023-06-14T12:55:10;23.20;80.30
12413;DHT22;13877;18.896;-99.222;2023-06-14T12:57:37;23.30;79.00
12413;DHT22;13877;18.896;-99.222;2023-06-14T13:00:05;23.50;79.60
12413;DHT22;13877;18.896;-99.222;2023-06-14T13:02:34;23.50;78.10
12413;DHT22;13877;18.896;-99.222;2023-06-14T13:05:02;23.50;77.80
12413;DHT22;13877;18.896;-99.222;2023-06-14T13:07:30;23.60;77.40
12413;DHT22;13877;18.896;-99.222;2023-06-14T13:09:56;23.80;76.20
12413;DHT22;13877;18.896;-99.222;2023-06-14T13:12:23;23.90;75.80
12413;DHT22;13877;18.896;-99.222;2023-06-14T13:14:50;24.20;75.20
12413;DHT22;13877;18.896;-99.222;2023-06-14T13:17:17;24.30;74.90
12413;DHT22;13877;18.896;-99.222;2023-06-14T13:19:44;24.40;74.60
12413;DHT22;13877;18.896;-99.222;2023-06-14T13:22:13;24.60;74.60
12413;DHT22;13877;18.896;-99.222;2023-06-14T13:24:40;24.60;74.70
12413;DHT22;13877;18.896;-99.222;2023-06-14T13:27:07;24.70;73.90
12413;DHT22;13877;18.896;-99.222;2023-06-14T13:29:34;24.80;73.80
12413;DHT22;13877;18.896;-99.222;2023-06-14T13:32:03;25.00;72.90
12413;DHT22;13877;18.896;-99.222;2023-06-14T13:34:30;25.20;72.70
12413;DHT22;13877;18.896;-99.222;2023-06-14T13:36:57;25.10;73.30
12413;DHT22;13877;18.896;-99.222;2023-06-14T13:39:26;25.40;72.00
12413;DHT22;13877;18.896;-99.222;2023-06-14T13:41:52;25.60;72.70
12413;DHT22;13877;18.896;-99.222;2023-06-14T13:44:20;25.70;72.20
12413;DHT22;13877;18.896;-99.222;2023-06-14T13:46:47;25.60;72.00
12413;DHT22;13877;18.896;-99.222;2023-06-14T13:49:14;25.70;71.10
12413;DHT22;13877;18.896;-99.222;2023-06-14T13:51:41;26.00;70.90
12413;DHT22;13877;18.896;-99.222;2023-06-14T13:54:08;26.20;71.20
12413;DHT22;13877;18.896;-99.222;2023-06-14T13:56:35;26.40;69.70
12413;DHT22;13877;18.896;-99.222;2023-06-14T13:59:02;26.40;69.90
12413;DHT22;13877;18.896;-99.222;2023-06-14T14:01:29;26.10;70.70
12413;DHT22;13877;18.896;-99.222;2023-06-14T14:03:56;26.20;70.40
12413;DHT22;13877;18.896;-99.222;2023-06-14T14:06:25;26.00;70.40
12413;DHT22;13877;18.896;-99.222;2023-06-14T14:08:51;26.40;69.70
12413;DHT22;13877;18.896;-99.222;2023-06-14T14:11:19;26.60;70.00
12413;DHT22;13877;18.896;-99.222;2023-06-14T14:13:47;27.00;70.70
12413;DHT22;13877;18.896;-99.222;2023-06-14T14:16:14;26.90;68.80
12413;DHT22;13877;18.896;-99.222;2023-06-14T14:18:41;27.00;69.70
12413;DHT22;13877;18.896;-99.222;2023-06-14T14:21:08;27.20;67.10
12413;DHT22;13877;18.896;-99.222;2023-06-14T14:23:36;27.30;66.70
12413;DHT22;13877;18.896;-99.222;2023-06-14T14:26:03;27.50;67.10
12413;DHT22;13877;18.896;-99.222;2023-06-14T14:28:31;27.40;67.40
12413;DHT22;13877;18.896;-99.222;2023-06-14T14:30:59;27.10;68.90
12413;DHT22;13877;18.896;-99.222;2023-06-14T14:33:26;27.20;67.70
12413;DHT22;13877;18.896;-99.222;2023-06-14T14:35:53;27.20;67.70
12413;DHT22;13877;18.896;-99.222;2023-06-14T14:38:20;27.10;68.10
12413;DHT22;13877;18.896;-99.222;2023-06-14T14:40:48;27.70;66.70
12413;DHT22;13877;18.896;-99.222;2023-06-14T14:43:15;27.20;66.60
12413;DHT22;13877;18.896;-99.222;2023-06-14T14:45:42;27.00;67.90
12413;DHT22;13877;18.896;-99.222;2023-06-14T14:48:09;27.20;67.50
12413;DHT22;13877;18.896;-99.222;2023-06-14T14:50:36;27.60;68.90
12413;DHT22;13877;18.896;-99.222;2023-06-14T14:53:02;27.80;67.50
12413;DHT22;13877;18.896;-99.222;2023-06-14T14:55:29;27.90;67.50
12413;DHT22;13877;18.896;-99.222;2023-06-14T14:57:57;27.90;67.40
12413;DHT22;13877;18.896;-99.222;2023-06-14T15:00:24;28.50;65.60
12413;DHT22;13877;18.896;-99.222;2023-06-14T15:02:50;28.40;65.90
12413;DHT22;13877;18.896;-99.222;2023-06-14T15:05:17;28.50;65.80
12413;DHT22;13877;18.896;-99.222;2023-06-14T15:07:44;27.90;65.90
12413;DHT22;13877;18.896;-99.222;2023-06-14T15:10:12;27.80;66.50
12413;DHT22;13877;18.896;-99.222;2023-06-14T15:12:39;27.80;67.10
12413;DHT22;13877;18.896;-99.222;2023-06-14T15:15:06;28.10;66.10
12413;DHT22;13877;18.896;-99.222;2023-06-14T15:17:33;28.20;65.30
12413;DHT22;13877;18.896;-99.222;2023-06-14T15:20:00;28.90;64.60